sensor_id;sensor_type;location;lat;lon;timestamp;P1;durP1;ratioP1;P2;durP2;ratioP2
33491;SDS011;20010;51.488;7.232;2023-08-31T00:00:41;8.40;;;7.70;;
33491;SDS011;20010;51.488;7.232;2023-08-31T00:03:08;8.60;;;7.85;;
33491;SDS011;20010;51.488;7.232;2023-08-31T00:05:37;7.82;;;7.13;;
33491;SDS011;20010;51.488;7.232;2023-08-31T00:08:07;9.13;;;7.53;;
33491;SDS011;20010;51.488;7.232;2023-08-31T00:10:34;7.72;;;7.05;;
33491;SDS011;20010;51.488;7.232;2023-08-31T00:13:04;8.60;;;7.70;;
33491;SDS011;20010;51.488;7.232;2023-08-31T00:15:32;7.18;;;6.63;;
33491;SDS011;20010;51.488;7.232;2023-08-31T00:18:02;8.82;;;7.90;;
33491;SDS011;20010;51.488;7.232;2023-08-31T00:20:32;7.30;;;6.82;;
33491;SDS011;20010;51.488;7.232;2023-08-31T00:23:00;8.43;;;7.55;;
33491;SDS011;20010;51.488;7.232;2023-08-31T00:25:27;8.98;;;8.13;;
33491;SDS011;20010;51.488;7.232;2023-08-31T00:27:55;8.30;;;7.60;;
33491;SDS011;20010;51.488;7.232;2023-08-31T00:30:23;7.55;;;6.78;;
33491;SDS011;20010;51.488;7.232;2023-08-31T00:32:56;8.43;;;7.57;;
33491;SDS011;20010;51.488;7.232;2023-08-31T00:35:26;9.07;;;7.32;;
33491;SDS011;20010;51.488;7.232;2023-08-31T00:37:53;7.82;;;7.03;;
33491;SDS011;20010;51.488;7.232;2023-08-31T00:40:24;7.22;;;6.82;;
33491;SDS011;20010;51.488;7.232;2023-08-31T00:42:51;7.55;;;6.95;;
33491;SDS011;20010;51.488;7.232;2023-08-31T00:45:18;8.35;;;7.32;;
33491;SDS011;20010;51.488;7.232;2023-08-31T00:47:46;8.82;;;7.32;;
33491;SDS011;20010;51.488;7.232;2023-08-31T00:50:14;8.02;;;7.30;;
33491;SDS011;20010;51.488;7.232;2023-08-31T00:52:43;10.13;;;7.55;;
33491;SDS011;20010;51.488;7.232;2023-08-31T00:55:14;7.97;;;7.32;;
33491;SDS011;20010;51.488;7.232;2023-08-31T00:57:44;7.72;;;7.07;;
33491;SDS011;20010;51.488;7.232;2023-08-31T01:00:11;10.18;;;6.97;;
33491;SDS011;20010;51.488;7.232;2023-08-31T01:02:43;8.65;;;6.80;;
33491;SDS011;20010;51.488;7.232;2023-08-31T01:08:07;8.38;;;7.57;;
33491;SDS011;20010;51.488;7.232;2023-08-31T01:13:11;8.75;;;7.75;;
33491;SDS011;20010;51.488;7.232;2023-08-31T01:15:41;7.55;;;6.82;;
33491;SDS011;20010;51.488;7.232;2023-08-31T01:18:08;7.65;;;6.95;;
33491;SDS011;20010;51.488;7.232;2023-08-31T01:20:44;8.30;;;7.50;;
33491;SDS011;20010;51.488;7.232;2023-08-31T01:23:15;8.75;;;7.88;;
33491;SDS011;20010;51.488;7.232;2023-08-31T01:25:42;9.15;;;8.35;;
33491;SDS011;20010;51.488;7.232;2023-08-31T01:28:10;8.88;;;8.02;;
33491;SDS011;20010;51.488;7.232;2023-08-31T01:30:36;8.32;;;7.63;;
33491;SDS011;20010;51.488;7.232;2023-08-31T01:33:03;9.48;;;7.97;;
33491;SDS011;20010;51.488;7.232;2023-08-31T01:35:30;8.23;;;7.60;;
33491;SDS011;20010;51.488;7.232;2023-08-31T01:37:59;8.50;;;7.75;;
33491;SDS011;20010;51.488;7.232;2023-08-31T01:40:29;8.93;;;8.13;;
33491;SDS011;20010;51.488;7.232;2023-08-31T01:42:58;9.32;;;8.38;;
33491;SDS011;20010;51.488;7.232;2023-08-31T01:45:25;8.57;;;7.97;;
33491;SDS011;20010;51.488;7.232;2023-08-31T01:47:52;9.48;;;8.55;;
33491;SDS011;20010;51.488;7.232;2023-08-31T01:50:19;9.38;;;8.48;;
33491;SDS011;20010;51.488;7.232;2023-08-31T01:52:45;11.45;;;8.27;;
33491;SDS011;20010;51.488;7.232;2023-08-31T01:55:11;8.10;;;7.50;;
33491;SDS011;20010;51.488;7.232;2023-08-31T01:57:42;9.10;;;8.23;;
33491;SDS011;20010;51.488;7.232;2023-08-31T02:00:09;8.82;;;8.02;;
33491;SDS011;20010;51.488;7.232;2023-08-31T02:02:36;8.90;;;8.10;;
33491;SDS011;20010;51.488;7.232;2023-08-31T02:05:02;9.55;;;8.60;;
33491;SDS011;20010;51.488;7.232;2023-08-31T02:07:30;8.55;;;7.93;;
33491;SDS011;20010;51.488;7.232;2023-08-31T02:09:57;17.73;;;8.63;;
33491;SDS011;20010;51.488;7.232;2023-08-31T02:12:23;9.18;;;8.48;;
33491;SDS011;20010;51.488;7.232;2023-08-31T02:14:50;8.43;;;7.82;;
33491;SDS011;20010;51.488;7.232;2023-08-31T02:17:16;9.27;;;8.38;;
33491;SDS011;20010;51.488;7.232;2023-08-31T02:19:42;9.18;;;8.43;;
33491;SDS011;20010;51.488;7.232;2023-08-31T02:22:09;8.98;;;8.23;;
33491;SDS011;20010;51.488;7.232;2023-08-31T02:24:35;9.05;;;8.25;;
33491;SDS011;20010;51.488;7.232;2023-08-31T02:27:02;8.70;;;8.00;;
33491;SDS011;20010;51.488;7.232;2023-08-31T02:29:29;9.27;;;8.57;;
33491;SDS011;20010;51.488;7.232;2023-08-31T02:31:55;9.52;;;8.52;;
33491;SDS011;20010;51.488;7.232;2023-08-31T02:34:22;8.40;;;7.63;;
33491;SDS011;20010;51.488;7.232;2023-08-31T02:36:48;9.55;;;8.70;;
33491;SDS011;20010;51.488;7.232;2023-08-31T02:39:15;8.95;;;8.23;;
33491;SDS011;20010;51.488;7.232;2023-08-31T02:41:42;9.70;;;7.97;;
33491;SDS011;20010;51.488;7.232;2023-08-31T02:44:08;9.15;;;8.43;;
33491;SDS011;20010;51.488;7.232;2023-08-31T02:46:35;9.60;;;8.57;;
33491;SDS011;20010;51.488;7.232;2023-08-31T02:49:01;8.73;;;8.00;;
33491;SDS011;20010;51.488;7.232;2023-08-31T02:51:28;10.05;;;9.15;;
33491;SDS011;20010;51.488;7.232;2023-08-31T02:53:54;10.27;;;8.77;;
33491;SDS011;20010;51.488;7.232;2023-08-31T02:56:21;10.20;;;9.30;;
33491;SDS011;20010;51.488;7.232;2023-08-31T02:58:47;10.07;;;9.18;;
33491;SDS011;20010;51.488;7.232;2023-08-31T03:01:14;10.50;;;9.38;;
33491;SDS011;20010;51.488;7.232;2023-08-31T03:03:41;9.65;;;8.73;;
33491;SDS011;20010;51.488;7.232;2023-08-31T03:06:08;10.10;;;8.80;;
33491;SDS011;20010;51.488;7.232;2023-08-31T03:08:35;10.40;;;9.30;;
33491;SDS011;20010;51.488;7.232;2023-08-31T03:11:03;10.00;;;9.10;;
33491;SDS011;20010;51.488;7.232;2023-08-31T03:13:30;9.57;;;8.73;;
33491;SDS011;20010;51.488;7.232;2023-08-31T03:15:57;9.73;;;8.80;;
33491;SDS011;20010;51.488;7.232;2023-08-31T03:18:23;11.07;;;9.80;;
33491;SDS011;20010;51.488;7.232;2023-08-31T03:20:50;11.38;;;10.27;;
33491;SDS011;20010;51.488;7.232;2023-08-31T03:23:16;10.27;;;9.48;;
33491;SDS011;20010;51.488;7.232;2023-08-31T03:25:43;10.60;;;9.55;;
33491;SDS011;20010;51.488;7.232;2023-08-31T03:28:10;10.82;;;9.93;;
33491;SDS011;20010;51.488;7.232;2023-08-31T03:30:36;10.07;;;9.27;;
33491;SDS011;20010;51.488;7.232;2023-08-31T03:33:03;10.20;;;9.00;;
33491;SDS011;20010;51.488;7.232;2023-08-31T03:35:31;10.40;;;9.50;;
33491;SDS011;20010;51.488;7.232;2023-08-31T03:37:57;10.73;;;9.82;;
33491;SDS011;20010;51.488;7.232;2023-08-31T03:40:24;11.60;;;10.60;;
33491;SDS011;20010;51.488;7.232;2023-08-31T03:42:50;12.50;;;11.43;;
33491;SDS011;20010;51.488;7.232;2023-08-31T03:45:17;11.68;;;10.65;;
33491;SDS011;20010;51.488;7.232;2023-08-31T03:47:44;11.82;;;10.90;;
33491;SDS011;20010;51.488;7.232;2023-08-31T03:50:10;12.18;;;11.02;;
33491;SDS011;20010;51.488;7.232;2023-08-31T03:52:37;13.07;;;11.88;;
33491;SDS011;20010;51.488;7.232;2023-08-31T03:55:04;15.02;;;13.65;;
33491;SDS011;20010;51.488;7.232;2023-08-31T03:57:30;14.68;;;13.30;;
33491;SDS011;20010;51.488;7.232;2023-08-31T03:59:57;13.98;;;12.70;;
33491;SDS011;20010;51.488;7.232;2023-08-31T04:02:23;14.45;;;13.05;;
33491;SDS011;20010;51.488;7.232;2023-08-31T04:04:50;14.70;;;13.40;;
33491;SDS011;20010;51.488;7.232;2023-08-31T04:07:16;14.48;;;13.15;;
33491;SDS011;20010;51.488;7.232;2023-08-31T04:09:43;14.93;;;13.65;;
33491;SDS011;20010;51.488;7.232;2023-08-31T04:12:09;15.93;;;14.63;;
33491;SDS011;20010;51.488;7.232;2023-08-31T04:14:36;16.05;;;14.52;;
33491;SDS011;20010;51.488;7.232;2023-08-31T04:17:02;17.50;;;15.82;;
33491;SDS011;20010;51.488;7.232;2023-08-31T04:19:31;18.73;;;16.95;;
33491;SDS011;20010;51.488;7.232;2023-08-31T04:21:57;20.20;;;18.13;;
33491;SDS011;20010;51.488;7.232;2023-08-31T04:24:24;19.95;;;18.08;;
33491;SDS011;20010;51.488;7.232;2023-08-31T04:26:50;20.63;;;18.63;;
33491;SDS011;20010;51.488;7.232;2023-08-31T04:29:17;21.23;;;19.25;;
33491;SDS011;20010;51.488;7.232;2023-08-31T04:31:43;20.63;;;18.52;;
33491;SDS011;20010;51.488;7.232;2023-08-31T04:34:10;20.67;;;18.75;;
33491;SDS011;20010;51.488;7.232;2023-08-31T04:36:36;20.73;;;18.63;;
33491;SDS011;20010;51.488;7.232;2023-08-31T04:39:03;22.08;;;19.77;;
33491;SDS011;20010;51.488;7.232;2023-08-31T04:41:31;21.92;;;19.67;;
33491;SDS011;20010;51.488;7.232;2023-08-31T04:43:57;21.42;;;19.02;;
33491;SDS011;20010;51.488;7.232;2023-08-31T04:46:24;21.88;;;19.58;;
33491;SDS011;20010;51.488;7.232;2023-08-31T04:48:50;22.98;;;20.52;;
33491;SDS011;20010;51.488;7.232;2023-08-31T04:53:55;24.35;;;21.80;;
33491;SDS011;20010;51.488;7.232;2023-08-31T04:56:22;21.08;;;18.90;;
33491;SDS011;20010;51.488;7.232;2023-08-31T04:58:48;20.73;;;18.90;;
33491;SDS011;20010;51.488;7.232;2023-08-31T05:01:14;22.75;;;20.55;;
33491;SDS011;20010;51.488;7.232;2023-08-31T05:03:43;22.10;;;19.98;;
33491;SDS011;20010;51.488;7.232;2023-08-31T05:06:09;22.25;;;19.92;;
33491;SDS011;20010;51.488;7.232;2023-08-31T05:08:36;21.95;;;19.70;;
33491;SDS011;20010;51.488;7.232;2023-08-31T05:11:02;23.20;;;19.67;;
33491;SDS011;20010;51.488;7.232;2023-08-31T05:13:29;21.85;;;19.75;;
33491;SDS011;20010;51.488;7.232;2023-08-31T05:15:55;23.23;;;20.90;;
33491;SDS011;20010;51.488;7.232;2023-08-31T05:18:22;22.30;;;19.95;;
33491;SDS011;20010;51.488;7.232;2023-08-31T05:20:48;24.08;;;21.30;;
33491;SDS011;20010;51.488;7.232;2023-08-31T05:23:15;22.38;;;19.48;;
33491;SDS011;20010;51.488;7.232;2023-08-31T05:25:42;22.27;;;19.92;;
33491;SDS011;20010;51.488;7.232;2023-08-31T05:28:08;22.73;;;19.83;;
33491;SDS011;20010;51.488;7.232;2023-08-31T05:30:35;23.63;;;21.17;;
33491;SDS011;20010;51.488;7.232;2023-08-31T05:33:01;24.13;;;21.60;;
33491;SDS011;20010;51.488;7.232;2023-08-31T05:35:30;24.10;;;21.70;;
33491;SDS011;20010;51.488;7.232;2023-08-31T05:37:56;23.95;;;21.77;;
33491;SDS011;20010;51.488;7.232;2023-08-31T05:40:23;23.45;;;21.40;;
33491;SDS011;20010;51.488;7.232;2023-08-31T05:42:49;23.52;;;21.10;;
33491;SDS011;20010;51.488;7.232;2023-08-31T05:45:15;22.77;;;20.50;;
33491;SDS011;20010;51.488;7.232;2023-08-31T05:47:42;23.67;;;21.23;;
33491;SDS011;20010;51.488;7.232;2023-08-31T05:50:09;22.13;;;20.02;;
33491;SDS011;20010;51.488;7.232;2023-08-31T05:52:35;21.80;;;19.80;;
33491;SDS011;20010;51.488;7.232;2023-08-31T05:55:02;22.95;;;19.88;;
33491;SDS011;20010;51.488;7.232;2023-08-31T05:57:29;20.30;;;18.40;;
33491;SDS011;20010;51.488;7.232;2023-08-31T05:59:55;20.15;;;18.35;;
33491;SDS011;20010;51.488;7.232;2023-08-31T06:02:22;18.40;;;16.75;;
33491;SDS011;20010;51.488;7.232;2023-08-31T06:04:48;17.95;;;16.15;;
33491;SDS011;20010;51.488;7.232;2023-08-31T06:07:15;18.13;;;16.42;;
33491;SDS011;20010;51.488;7.232;2023-08-31T06:09:41;18.23;;;16.45;;
33491;SDS011;20010;51.488;7.232;2023-08-31T06:12:08;17.92;;;16.33;;
33491;SDS011;20010;51.488;7.232;2023-08-31T06:14:34;17.25;;;15.52;;
33491;SDS011;20010;51.488;7.232;2023-08-31T06:17:00;17.17;;;15.65;;
33491;SDS011;20010;51.488;7.232;2023-08-31T06:19:27;15.05;;;13.63;;
33491;SDS011;20010;51.488;7.232;2023-08-31T06:21:53;15.02;;;13.90;;
33491;SDS011;20010;51.488;7.232;2023-08-31T06:24:20;15.48;;;14.18;;
33491;SDS011;20010;51.488;7.232;2023-08-31T06:26:46;14.93;;;13.63;;
33491;SDS011;20010;51.488;7.232;2023-08-31T06:29:13;14.82;;;13.27;;
33491;SDS011;20010;51.488;7.232;2023-08-31T06:31:40;13.88;;;12.45;;
33491;SDS011;20010;51.488;7.232;2023-08-31T06:34:06;14.25;;;12.63;;
33491;SDS011;20010;51.488;7.232;2023-08-31T06:36:33;13.20;;;11.88;;
33491;SDS011;20010;51.488;7.232;2023-08-31T06:39:00;13.23;;;11.50;;
33491;SDS011;20010;51.488;7.232;2023-08-31T06:41:26;12.68;;;11.68;;
33491;SDS011;20010;51.488;7.232;2023-08-31T06:43:53;12.20;;;11.15;;
33491;SDS011;20010;51.488;7.232;2023-08-31T06:46:19;12.02;;;11.07;;
33491;SDS011;20010;51.488;7.232;2023-08-31T06:48:50;13.63;;;11.02;;
33491;SDS011;20010;51.488;7.232;2023-08-31T06:51:16;10.73;;;9.68;;
33491;SDS011;20010;51.488;7.232;2023-08-31T06:53:43;11.18;;;10.18;;
33491;SDS011;20010;51.488;7.232;2023-08-31T06:56:10;11.13;;;9.98;;
33491;SDS011;20010;51.488;7.232;2023-08-31T06:58:36;11.70;;;10.57;;
33491;SDS011;20010;51.488;7.232;2023-08-31T07:01:05;11.40;;;9.00;;
33491;SDS011;20010;51.488;7.232;2023-08-31T07:03:32;11.23;;;9.40;;
33491;SDS011;20010;51.488;7.232;2023-08-31T07:05:58;15.75;;;9.70;;
33491;SDS011;20010;51.488;7.232;2023-08-31T07:08:25;9.75;;;8.60;;
33491;SDS011;20010;51.488;7.232;2023-08-31T07:10:52;8.70;;;8.00;;
33491;SDS011;20010;51.488;7.232;2023-08-31T07:13:18;9.15;;;8.45;;
33491;SDS011;20010;51.488;7.232;2023-08-31T07:15:44;10.43;;;9.20;;
33491;SDS011;20010;51.488;7.232;2023-08-31T07:18:11;13.27;;;8.60;;
33491;SDS011;20010;51.488;7.232;2023-08-31T07:20:38;9.43;;;8.52;;
33491;SDS011;20010;51.488;7.232;2023-08-31T07:23:04;9.18;;;8.10;;
33491;SDS011;20010;51.488;7.232;2023-08-31T07:25:31;8.07;;;7.47;;
33491;SDS011;20010;51.488;7.232;2023-08-31T07:27:57;8.85;;;7.97;;
33491;SDS011;20010;51.488;7.232;2023-08-31T07:30:24;8.15;;;7.55;;
33491;SDS011;20010;51.488;7.232;2023-08-31T07:32:50;9.55;;;7.40;;
33491;SDS011;20010;51.488;7.232;2023-08-31T07:35:17;8.25;;;7.50;;
33491;SDS011;20010;51.488;7.232;2023-08-31T07:37:43;9.93;;;8.23;;
33491;SDS011;20010;51.488;7.232;2023-08-31T07:40:10;8.68;;;7.75;;
33491;SDS011;20010;51.488;7.232;2023-08-31T07:42:37;9.13;;;7.60;;
33491;SDS011;20010;51.488;7.232;2023-08-31T07:45:03;7.55;;;6.70;;
33491;SDS011;20010;51.488;7.232;2023-08-31T07:47:31;7.32;;;6.63;;
33491;SDS011;20010;51.488;7.232;2023-08-31T07:49:59;9.95;;;7.32;;
33491;SDS011;20010;51.488;7.232;2023-08-31T07:52:26;7.70;;;7.03;;
33491;SDS011;20010;51.488;7.232;2023-08-31T07:54:54;9.40;;;7.93;;
33491;SDS011;20010;51.488;7.232;2023-08-31T07:57:21;8.23;;;6.78;;
33491;SDS011;20010;51.488;7.232;2023-08-31T07:59:48;7.07;;;6.43;;
33491;SDS011;20010;51.488;7.232;2023-08-31T08:02:14;6.60;;;5.95;;
33491;SDS011;20010;51.488;7.232;2023-08-31T08:04:42;7.82;;;6.05;;
33491;SDS011;20010;51.488;7.232;2023-08-31T08:07:09;7.03;;;6.35;;
33491;SDS011;20010;51.488;7.232;2023-08-31T08:09:35;6.95;;;6.22;;
33491;SDS011;20010;51.488;7.232;2023-08-31T08:12:02;6.43;;;5.90;;
33491;SDS011;20010;51.488;7.232;2023-08-31T08:14:28;6.20;;;5.70;;
33491;SDS011;20010;51.488;7.232;2023-08-31T08:16:55;6.15;;;5.75;;
33491;SDS011;20010;51.488;7.232;2023-08-31T08:19:22;6.20;;;5.50;;
33491;SDS011;20010;51.488;7.232;2023-08-31T08:21:50;6.55;;;5.63;;
33491;SDS011;20010;51.488;7.232;2023-08-31T08:24:16;6.20;;;5.30;;
33491;SDS011;20010;51.488;7.232;2023-08-31T08:26:43;6.40;;;5.90;;
33491;SDS011;20010;51.488;7.232;2023-08-31T08:29:10;6.68;;;5.80;;
33491;SDS011;20010;51.488;7.232;2023-08-31T08:31:36;7.85;;;6.28;;
33491;SDS011;20010;51.488;7.232;2023-08-31T08:34:03;6.32;;;5.75;;
33491;SDS011;20010;51.488;7.232;2023-08-31T08:36:30;7.88;;;7.07;;
33491;SDS011;20010;51.488;7.232;2023-08-31T08:38:56;6.47;;;5.97;;
33491;SDS011;20010;51.488;7.232;2023-08-31T08:41:23;8.48;;;6.40;;
33491;SDS011;20010;51.488;7.232;2023-08-31T08:43:50;7.35;;;6.80;;
33491;SDS011;20010;51.488;7.232;2023-08-31T08:46:17;8.07;;;6.80;;
33491;SDS011;20010;51.488;7.232;2023-08-31T08:48:44;6.97;;;6.25;;
33491;SDS011;20010;51.488;7.232;2023-08-31T08:51:13;6.18;;;5.68;;
33491;SDS011;20010;51.488;7.232;2023-08-31T08:53:43;7.30;;;6.60;;
33491;SDS011;20010;51.488;7.232;2023-08-31T08:56:09;6.80;;;6.00;;
33491;SDS011;20010;51.488;7.232;2023-08-31T08:58:36;6.60;;;6.00;;
33491;SDS011;20010;51.488;7.232;2023-08-31T09:01:02;9.75;;;7.75;;
33491;SDS011;20010;51.488;7.232;2023-08-31T09:03:30;8.10;;;6.47;;
33491;SDS011;20010;51.488;7.232;2023-08-31T09:05:58;7.30;;;6.55;;
33491;SDS011;20010;51.488;7.232;2023-08-31T09:08:31;7.13;;;6.53;;
33491;SDS011;20010;51.488;7.232;2023-08-31T09:10:58;8.45;;;6.85;;
33491;SDS011;20010;51.488;7.232;2023-08-31T09:13:28;7.18;;;6.60;;
33491;SDS011;20010;51.488;7.232;2023-08-31T09:15:58;7.43;;;6.75;;
33491;SDS011;20010;51.488;7.232;2023-08-31T09:18:25;6.63;;;6.03;;
33491;SDS011;20010;51.488;7.232;2023-08-31T09:20:53;6.75;;;6.30;;
33491;SDS011;20010;51.488;7.232;2023-08-31T09:23:20;7.50;;;6.50;;
33491;SDS011;20010;51.488;7.232;2023-08-31T09:25:47;15.57;;;6.50;;
33491;SDS011;20010;51.488;7.232;2023-08-31T09:28:22;8.27;;;6.78;;
33491;SDS011;20010;51.488;7.232;2023-08-31T09:30:49;7.25;;;6.45;;
33491;SDS011;20010;51.488;7.232;2023-08-31T09:33:17;7.05;;;6.55;;
33491;SDS011;20010;51.488;7.232;2023-08-31T09:35:55;7.75;;;6.13;;
33491;SDS011;20010;51.488;7.232;2023-08-31T09:38:21;6.97;;;6.47;;
33491;SDS011;20010;51.488;7.232;2023-08-31T09:40:48;6.90;;;6.30;;
33491;SDS011;20010;51.488;7.232;2023-08-31T09:43:18;7.05;;;6.40;;
33491;SDS011;20010;51.488;7.232;2023-08-31T09:45:45;8.70;;;7.03;;
33491;SDS011;20010;51.488;7.232;2023-08-31T09:48:13;7.50;;;6.60;;
33491;SDS011;20010;51.488;7.232;2023-08-31T09:50:41;6.68;;;6.07;;
33491;SDS011;20010;51.488;7.232;2023-08-31T09:53:09;8.73;;;6.50;;
33491;SDS011;20010;51.488;7.232;2023-08-31T09:55:38;6.75;;;6.10;;
33491;SDS011;20010;51.488;7.232;2023-08-31T09:58:05;7.15;;;6.50;;
33491;SDS011;20010;51.488;7.232;2023-08-31T10:00:41;6.53;;;5.90;;
33491;SDS011;20010;51.488;7.232;2023-08-31T10:03:09;6.65;;;6.22;;
33491;SDS011;20010;51.488;7.232;2023-08-31T10:05:45;7.10;;;6.40;;
33491;SDS011;20010;51.488;7.232;2023-08-31T10:08:12;6.80;;;5.95;;
33491;SDS011;20010;51.488;7.232;2023-08-31T10:10:39;6.47;;;5.97;;
33491;SDS011;20010;51.488;7.232;2023-08-31T10:13:06;6.60;;;6.00;;
33491;SDS011;20010;51.488;7.232;2023-08-31T10:15:33;7.18;;;5.68;;
33491;SDS011;20010;51.488;7.232;2023-08-31T10:18:00;6.60;;;6.00;;
33491;SDS011;20010;51.488;7.232;2023-08-31T10:20:28;6.43;;;5.85;;
33491;SDS011;20010;51.488;7.232;2023-08-31T10:22:57;7.55;;;5.80;;
33491;SDS011;20010;51.488;7.232;2023-08-31T10:25:24;6.45;;;5.95;;
33491;SDS011;20010;51.488;7.232;2023-08-31T10:27:53;6.78;;;6.20;;
33491;SDS011;20010;51.488;7.232;2023-08-31T10:35:41;6.43;;;5.95;;
33491;SDS011;20010;51.488;7.232;2023-08-31T10:38:16;6.57;;;6.25;;
33491;SDS011;20010;51.488;7.232;2023-08-31T10:43:53;6.13;;;5.72;;
33491;SDS011;20010;51.488;7.232;2023-08-31T10:46:43;6.15;;;5.75;;
33491;SDS011;20010;51.488;7.232;2023-08-31T10:49:53;6.60;;;6.10;;
33491;SDS011;20010;51.488;7.232;2023-08-31T10:52:27;8.02;;;6.47;;
33491;SDS011;20010;51.488;7.232;2023-08-31T10:55:08;6.88;;;6.18;;
33491;SDS011;20010;51.488;7.232;2023-08-31T10:57:35;6.25;;;5.72;;
33491;SDS011;20010;51.488;7.232;2023-08-31T11:00:02;7.88;;;6.32;;
33491;SDS011;20010;51.488;7.232;2023-08-31T11:07:34;6.13;;;5.63;;
33491;SDS011;20010;51.488;7.232;2023-08-31T11:10:22;5.70;;;5.20;;
33491;SDS011;20010;51.488;7.232;2023-08-31T11:12:54;6.20;;;5.80;;
33491;SDS011;20010;51.488;7.232;2023-08-31T11:15:24;6.00;;;5.47;;
33491;SDS011;20010;51.488;7.232;2023-08-31T11:17:52;6.45;;;5.90;;
33491;SDS011;20010;51.488;7.232;2023-08-31T11:20:20;6.05;;;5.65;;
33491;SDS011;20010;51.488;7.232;2023-08-31T11:22:47;5.82;;;5.32;;
33491;SDS011;20010;51.488;7.232;2023-08-31T11:25:17;5.97;;;5.45;;
33491;SDS011;20010;51.488;7.232;2023-08-31T11:28:03;6.00;;;5.50;;
33491;SDS011;20010;51.488;7.232;2023-08-31T11:30:36;5.75;;;5.25;;
33491;SDS011;20010;51.488;7.232;2023-08-31T11:33:04;7.40;;;6.50;;
33491;SDS011;20010;51.488;7.232;2023-08-31T11:35:37;6.18;;;5.65;;
33491;SDS011;20010;51.488;7.232;2023-08-31T11:38:06;6.75;;;6.25;;
33491;SDS011;20010;51.488;7.232;2023-08-31T11:40:33;6.30;;;5.20;;
33491;SDS011;20010;51.488;7.232;2023-08-31T11:42:59;6.78;;;5.20;;
33491;SDS011;20010;51.488;7.232;2023-08-31T11:45:30;5.30;;;5.00;;
33491;SDS011;20010;51.488;7.232;2023-08-31T11:47:57;5.63;;;5.05;;
33491;SDS011;20010;51.488;7.232;2023-08-31T11:50:24;5.75;;;5.45;;
33491;SDS011;20010;51.488;7.232;2023-08-31T11:52:51;6.43;;;5.90;;
33491;SDS011;20010;51.488;7.232;2023-08-31T11:55:19;6.38;;;5.78;;
33491;SDS011;20010;51.488;7.232;2023-08-31T11:57:48;7.50;;;5.80;;
33491;SDS011;20010;51.488;7.232;2023-08-31T12:00:17;7.35;;;5.78;;
33491;SDS011;20010;51.488;7.232;2023-08-31T12:02:43;6.63;;;6.13;;
33491;SDS011;20010;51.488;7.232;2023-08-31T12:05:12;6.40;;;5.80;;
33491;SDS011;20010;51.488;7.232;2023-08-31T12:07:39;5.80;;;5.40;;
33491;SDS011;20010;51.488;7.232;2023-08-31T12:10:14;7.40;;;5.70;;
33491;SDS011;20010;51.488;7.232;2023-08-31T12:12:40;5.80;;;5.40;;
33491;SDS011;20010;51.488;7.232;2023-08-31T12:15:07;5.72;;;5.30;;
33491;SDS011;20010;51.488;7.232;2023-08-31T12:17:37;6.35;;;5.88;;
33491;SDS011;20010;51.488;7.232;2023-08-31T12:20:04;6.18;;;5.60;;
33491;SDS011;20010;51.488;7.232;2023-08-31T12:22:31;6.82;;;6.25;;
33491;SDS011;20010;51.488;7.232;2023-08-31T12:24:58;10.15;;;5.65;;
33491;SDS011;20010;51.488;7.232;2023-08-31T12:27:24;7.80;;;6.50;;
33491;SDS011;20010;51.488;7.232;2023-08-31T12:29:52;6.88;;;6.05;;
33491;SDS011;20010;51.488;7.232;2023-08-31T12:32:18;6.63;;;5.90;;
33491;SDS011;20010;51.488;7.232;2023-08-31T12:34:45;7.00;;;6.10;;
33491;SDS011;20010;51.488;7.232;2023-08-31T12:37:12;5.97;;;5.47;;
33491;SDS011;20010;51.488;7.232;2023-08-31T12:39:39;6.13;;;5.65;;
33491;SDS011;20010;51.488;7.232;2023-08-31T12:42:06;7.38;;;6.30;;
33491;SDS011;20010;51.488;7.232;2023-08-31T12:44:47;5.90;;;5.40;;
33491;SDS011;20010;51.488;7.232;2023-08-31T12:47:14;6.60;;;5.43;;
33491;SDS011;20010;51.488;7.232;2023-08-31T12:49:41;5.28;;;4.97;;
33491;SDS011;20010;51.488;7.232;2023-08-31T12:52:08;5.75;;;5.35;;
33491;SDS011;20010;51.488;7.232;2023-08-31T12:54:35;6.18;;;5.75;;
33491;SDS011;20010;51.488;7.232;2023-08-31T12:57:02;8.40;;;5.30;;
33491;SDS011;20010;51.488;7.232;2023-08-31T12:59:29;6.45;;;5.68;;
33491;SDS011;20010;51.488;7.232;2023-08-31T13:01:56;5.78;;;5.30;;
33491;SDS011;20010;51.488;7.232;2023-08-31T13:04:26;5.60;;;5.20;;
33491;SDS011;20010;51.488;7.232;2023-08-31T13:07:16;5.88;;;5.47;;
33491;SDS011;20010;51.488;7.232;2023-08-31T13:09:51;5.60;;;5.10;;
33491;SDS011;20010;51.488;7.232;2023-08-31T13:12:21;5.68;;;5.32;;
33491;SDS011;20010;51.488;7.232;2023-08-31T13:14:53;5.82;;;5.43;;
33491;SDS011;20010;51.488;7.232;2023-08-31T13:17:26;7.80;;;5.70;;
33491;SDS011;20010;51.488;7.232;2023-08-31T13:19:58;6.35;;;5.93;;
33491;SDS011;20010;51.488;7.232;2023-08-31T13:22:30;7.28;;;6.15;;
33491;SDS011;20010;51.488;7.232;2023-08-31T13:24:57;6.28;;;5.78;;
33491;SDS011;20010;51.488;7.232;2023-08-31T13:27:24;7.38;;;5.38;;
33491;SDS011;20010;51.488;7.232;2023-08-31T13:29:51;6.30;;;5.70;;
33491;SDS011;20010;51.488;7.232;2023-08-31T13:32:23;6.32;;;5.72;;
33491;SDS011;20010;51.488;7.232;2023-08-31T13:34:50;6.63;;;5.78;;
33491;SDS011;20010;51.488;7.232;2023-08-31T13:37:28;6.15;;;5.40;;
33491;SDS011;20010;51.488;7.232;2023-08-31T13:39:58;8.32;;;5.65;;
33491;SDS011;20010;51.488;7.232;2023-08-31T13:42:32;6.30;;;5.70;;
33491;SDS011;20010;51.488;7.232;2023-08-31T13:45:01;5.72;;;5.13;;
33491;SDS011;20010;51.488;7.232;2023-08-31T13:47:29;6.40;;;5.70;;
33491;SDS011;20010;51.488;7.232;2023-08-31T13:49:56;6.28;;;5.30;;
33491;SDS011;20010;51.488;7.232;2023-08-31T13:52:28;8.10;;;5.90;;
33491;SDS011;20010;51.488;7.232;2023-08-31T13:54:55;6.35;;;5.80;;
33491;SDS011;20010;51.488;7.232;2023-08-31T13:57:25;5.55;;;5.15;;
33491;SDS011;20010;51.488;7.232;2023-08-31T13:59:55;5.40;;;5.10;;
33491;SDS011;20010;51.488;7.232;2023-08-31T14:02:32;5.50;;;5.20;;
33491;SDS011;20010;51.488;7.232;2023-08-31T14:04:59;5.60;;;5.25;;
33491;SDS011;20010;51.488;7.232;2023-08-31T14:07:28;6.05;;;5.53;;
33491;SDS011;20010;51.488;7.232;2023-08-31T14:09:59;6.40;;;5.90;;
33491;SDS011;20010;51.488;7.232;2023-08-31T14:12:27;6.03;;;5.60;;
33491;SDS011;20010;51.488;7.232;2023-08-31T14:15:04;6.22;;;5.72;;
33491;SDS011;20010;51.488;7.232;2023-08-31T14:17:36;6.10;;;5.60;;
33491;SDS011;20010;51.488;7.232;2023-08-31T14:20:08;5.82;;;5.53;;
33491;SDS011;20010;51.488;7.232;2023-08-31T14:22:39;6.78;;;5.28;;
33491;SDS011;20010;51.488;7.232;2023-08-31T14:25:13;6.25;;;5.85;;
33491;SDS011;20010;51.488;7.232;2023-08-31T14:27:42;6.72;;;6.22;;
33491;SDS011;20010;51.488;7.232;2023-08-31T14:30:23;7.13;;;6.50;;
33491;SDS011;20010;51.488;7.232;2023-08-31T14:32:51;6.53;;;5.97;;
33491;SDS011;20010;51.488;7.232;2023-08-31T14:35:19;7.55;;;6.25;;
33491;SDS011;20010;51.488;7.232;2023-08-31T14:37:48;6.78;;;6.18;;
33491;SDS011;20010;51.488;7.232;2023-08-31T14:40:15;11.27;;;7.43;;
33491;SDS011;20010;51.488;7.232;2023-08-31T14:42:59;15.73;;;9.10;;
33491;SDS011;20010;51.488;7.232;2023-08-31T14:45:31;9.90;;;9.20;;
33491;SDS011;20010;51.488;7.232;2023-08-31T14:48:14;10.63;;;9.68;;
33491;SDS011;20010;51.488;7.232;2023-08-31T14:50:43;12.05;;;10.95;;
33491;SDS011;20010;51.488;7.232;2023-08-31T14:53:25;9.98;;;9.13;;
33491;SDS011;20010;51.488;7.232;2023-08-31T14:56:04;13.10;;;12.10;;
33491;SDS011;20010;51.488;7.232;2023-08-31T14:58:39;12.25;;;11.18;;
33491;SDS011;20010;51.488;7.232;2023-08-31T15:01:09;13.45;;;12.25;;
33491;SDS011;20010;51.488;7.232;2023-08-31T15:03:38;13.25;;;12.15;;
33491;SDS011;20010;51.488;7.232;2023-08-31T15:06:23;13.27;;;12.00;;
33491;SDS011;20010;51.488;7.232;2023-08-31T15:08:52;14.23;;;13.13;;